createdAt,value
2019-01-11T00:00:27.491Z,0.00
2019-01-11T00:01:27.522Z,0.00
2019-01-11T00:02:27.467Z,0.00
2019-01-11T00:03:27.459Z,0.00
2019-01-11T00:04:27.447Z,0.00
2019-01-11T00:05:27.436Z,0.00
2019-01-11T00:06:27.425Z,0.00
2019-01-11T00:07:27.436Z,0.00
2019-01-11T00:08:27.405Z,0.00
2019-01-11T00:09:27.391Z,0.00
2019-01-11T00:10:27.380Z,0.00
2019-01-11T00:11:27.371Z,0.00
2019-01-11T00:12:27.383Z,0.00
2019-01-11T00:13:27.347Z,0.00
2019-01-11T00:14:27.335Z,0.00
2019-01-11T00:15:27.324Z,0.00
2019-01-11T00:16:27.313Z,0.00
2019-01-11T00:17:27.331Z,0.00
2019-01-11T00:18:27.293Z,0.00
2019-01-11T00:19:27.279Z,0.00
2019-01-11T00:20:27.269Z,0.00
2019-01-11T00:21:27.259Z,0.00
2019-01-11T00:22:27.273Z,0.00
2019-01-11T00:23:27.235Z,0.00
2019-01-11T00:24:27.225Z,0.00
2019-01-11T00:25:27.214Z,0.00
2019-01-11T00:26:27.207Z,0.00
2019-01-11T00:27:27.224Z,0.00
2019-01-11T00:28:27.184Z,0.00
2019-01-11T00:29:27.173Z,0.00
2019-01-11T00:30:27.161Z,0.00
2019-01-11T00:31:27.150Z,0.00
2019-01-11T00:32:27.146Z,0.00
2019-01-11T00:33:27.150Z,0.00
2019-01-11T00:34:27.114Z,0.00
2019-01-11T00:35:27.105Z,0.00
2019-01-11T00:36:27.094Z,0.00
2019-01-11T00:37:27.085Z,0.00
2019-01-11T00:38:27.095Z,0.00
2019-01-11T00:39:27.060Z,0.00
2019-01-11T00:40:27.050Z,0.00
2019-01-11T00:41:27.047Z,0.00
2019-01-11T00:42:27.026Z,0.00
2019-01-11T00:43:27.039Z,0.00
2019-01-11T00:44:27.004Z,0.00
2019-01-11T00:45:27.009Z,0.00
2019-01-11T00:46:26.982Z,0.00
2019-01-11T00:47:26.979Z,0.00
2019-01-11T00:48:26.986Z,0.00
2019-01-11T00:49:26.951Z,0.00
2019-01-11T00:50:26.939Z,0.00
2019-01-11T00:51:26.930Z,0.00
2019-01-11T00:52:26.917Z,0.00
2019-01-11T00:53:26.947Z,0.00
2019-01-11T00:54:26.899Z,0.00
2019-01-11T00:55:26.885Z,0.00
2019-01-11T00:56:26.877Z,0.00
2019-01-11T00:57:26.864Z,0.00
2019-01-11T00:58:26.851Z,0.00
2019-01-11T00:59:26.864Z,0.00
2019-01-11T01:00:26.830Z,0.00
2019-01-11T01:01:26.818Z,0.00
2019-01-11T01:02:26.809Z,0.00
2019-01-11T01:03:26.798Z,0.00
2019-01-11T01:04:26.807Z,0.00
2019-01-11T01:05:26.774Z,0.00
2019-01-11T01:06:26.765Z,0.00
2019-01-11T01:07:26.752Z,0.00
2019-01-11T01:08:30.537Z,0.00
2019-01-11T01:09:26.752Z,0.00
2019-01-11T01:10:26.718Z,0.00
2019-01-11T01:11:26.708Z,0.00
2019-01-11T01:12:26.705Z,0.00
2019-01-11T01:13:26.688Z,0.00
2019-01-11T01:14:26.705Z,0.00
2019-01-11T01:15:26.666Z,0.00
2019-01-11T01:16:26.652Z,0.00
2019-01-11T01:17:26.646Z,0.00
2019-01-11T01:18:26.630Z,0.00
2019-01-11T01:19:26.622Z,0.00
2019-01-11T01:20:26.632Z,0.00
2019-01-11T01:21:26.599Z,0.00
2019-01-11T01:22:26.589Z,0.00
2019-01-11T01:23:26.577Z,0.00
2019-01-11T01:24:26.563Z,0.00
2019-01-11T01:25:26.577Z,0.00
2019-01-11T01:26:26.543Z,0.00
2019-01-11T01:27:26.532Z,0.00
2019-01-11T01:28:26.531Z,0.00
2019-01-11T01:29:26.512Z,0.00
2019-01-11T01:30:26.519Z,0.00
2019-01-11T01:31:26.491Z,0.00
2019-01-11T01:32:26.478Z,0.00
2019-01-11T01:33:26.474Z,0.00
2019-01-11T01:34:26.458Z,0.00
2019-01-11T01:35:26.469Z,0.00
2019-01-11T01:36:26.432Z,0.00
2019-01-11T01:37:26.422Z,0.00
2019-01-11T01:38:26.411Z,0.00
2019-01-11T01:39:26.399Z,0.00
2019-01-11T01:40:26.423Z,0.00
2019-01-11T01:41:26.376Z,0.00
2019-01-11T01:42:26.365Z,0.00
2019-01-11T01:43:26.357Z,0.00
2019-01-11T01:44:26.346Z,0.00
2019-01-11T01:45:26.332Z,0.00
2019-01-11T01:46:26.346Z,0.00
2019-01-11T01:47:26.311Z,0.00
2019-01-11T01:48:26.304Z,0.00
2019-01-11T01:49:26.666Z,0.00
2019-01-11T01:50:26.278Z,0.00
2019-01-11T01:51:26.305Z,0.00
2019-01-11T01:52:26.256Z,0.00
2019-01-11T01:53:26.244Z,0.00
2019-01-11T01:54:26.238Z,0.00
2019-01-11T01:55:26.223Z,0.00
2019-01-11T01:56:26.212Z,0.00
2019-01-11T01:57:26.225Z,0.00
2019-01-11T01:58:26.189Z,0.00
2019-01-11T01:59:26.179Z,0.00
2019-01-11T02:00:26.175Z,0.00
2019-01-11T02:01:26.158Z,0.00
2019-01-11T02:02:26.168Z,0.00
2019-01-11T02:03:26.134Z,0.00
2019-01-11T02:04:26.123Z,0.00
2019-01-11T02:05:26.114Z,0.00
2019-01-11T02:06:26.105Z,0.00
2019-01-11T02:07:26.114Z,0.00
2019-01-11T02:08:26.083Z,0.00
2019-01-11T02:09:26.070Z,0.00
2019-01-11T02:10:26.057Z,0.00
2019-01-11T02:11:26.047Z,0.00
2019-01-11T02:12:26.060Z,0.00
2019-01-11T02:13:26.026Z,0.00
2019-01-11T02:14:26.016Z,0.00
2019-01-11T02:15:26.003Z,0.00
2019-01-11T02:16:25.993Z,0.00
2019-01-11T02:17:26.007Z,0.00
2019-01-11T02:18:25.970Z,0.00
2019-01-11T02:19:25.966Z,0.00
2019-01-11T02:20:25.949Z,0.00
2019-01-11T02:21:25.937Z,0.00
2019-01-11T02:22:25.926Z,0.00
2019-01-11T02:23:25.943Z,0.00
2019-01-11T02:24:25.908Z,0.00
2019-01-11T02:25:25.893Z,0.00
2019-01-11T02:26:25.884Z,0.00
2019-01-11T02:27:25.870Z,0.00
2019-01-11T02:28:25.883Z,0.00
2019-01-11T02:29:25.852Z,0.00
2019-01-11T02:30:25.843Z,0.00
2019-01-11T02:31:25.830Z,0.00
2019-01-11T02:32:25.817Z,0.00
2019-01-11T02:33:25.827Z,0.00
2019-01-11T02:34:25.794Z,0.00
2019-01-11T02:35:25.783Z,0.00
2019-01-11T02:36:25.773Z,0.00
2019-01-11T02:37:25.765Z,0.00
2019-01-11T02:38:25.782Z,0.00
2019-01-11T02:39:25.742Z,0.00
2019-01-11T02:40:25.731Z,0.00
2019-01-11T02:41:25.719Z,0.00
2019-01-11T02:42:25.714Z,0.00
2019-01-11T02:43:25.711Z,0.00
2019-01-11T02:44:25.713Z,0.00
2019-01-11T02:45:25.673Z,0.00
2019-01-11T02:46:25.661Z,0.00
2019-01-11T02:47:25.655Z,0.00
2019-01-11T02:48:25.642Z,0.00
2019-01-11T02:49:25.652Z,0.00
2019-01-11T02:50:25.617Z,0.00
2019-01-11T02:51:25.608Z,0.00
2019-01-11T02:52:25.606Z,0.00
2019-01-11T02:53:25.586Z,0.00
2019-01-11T02:54:25.598Z,0.00
2019-01-11T02:55:25.563Z,0.00
2019-01-11T02:56:25.555Z,0.00
2019-01-11T02:57:25.554Z,0.00
2019-01-11T02:58:25.531Z,0.00
2019-01-11T02:59:25.541Z,0.00
2019-01-11T03:00:25.516Z,0.00
2019-01-11T03:01:25.506Z,0.00
2019-01-11T03:02:25.485Z,0.00
2019-01-11T03:03:25.476Z,0.00
2019-01-11T03:04:25.579Z,0.00
2019-01-11T03:05:25.599Z,0.00
2019-01-11T03:06:25.446Z,0.00
2019-01-11T03:07:25.431Z,0.00
2019-01-11T03:08:25.418Z,0.00
2019-01-11T03:09:25.420Z,0.00
2019-01-11T03:10:25.425Z,0.00
2019-01-11T03:11:25.385Z,0.00
2019-01-11T03:12:25.378Z,0.00
2019-01-11T03:13:25.367Z,0.00
2019-01-11T03:14:25.352Z,0.00
2019-01-11T03:15:25.367Z,0.00
2019-01-11T03:16:25.332Z,0.00
2019-01-11T03:17:25.328Z,0.00
2019-01-11T03:18:25.308Z,0.00
2019-01-11T03:19:25.301Z,0.00
2019-01-11T03:20:25.319Z,0.00
2019-01-11T03:21:25.275Z,0.00
2019-01-11T03:22:25.266Z,0.00
2019-01-11T03:23:25.254Z,0.00
2019-01-11T03:24:25.242Z,0.00
2019-01-11T03:25:25.233Z,0.00
2019-01-11T03:26:25.242Z,0.00
2019-01-11T03:27:25.210Z,0.00
2019-01-11T03:28:25.201Z,0.00
2019-01-11T03:29:25.190Z,0.00
2019-01-11T03:30:25.192Z,0.00
2019-01-11T03:31:25.191Z,0.00
2019-01-11T03:32:25.155Z,0.00
2019-01-11T03:33:25.142Z,0.00
2019-01-11T03:34:25.133Z,0.00
2019-01-11T03:35:25.124Z,0.00
2019-01-11T03:36:25.144Z,0.00
2019-01-11T03:37:25.100Z,0.00
2019-01-11T03:38:25.091Z,0.00
2019-01-11T03:39:25.075Z,0.00
2019-01-11T03:40:25.066Z,0.00
2019-01-11T03:41:25.078Z,0.00
2019-01-11T03:42:25.043Z,0.00
2019-01-11T03:43:25.036Z,0.00
2019-01-11T03:44:25.022Z,0.00
2019-01-11T03:45:25.018Z,0.00
2019-01-11T03:46:25.024Z,0.00
2019-01-11T03:47:25.000Z,0.00
2019-01-11T03:48:24.978Z,0.00
2019-01-11T03:49:24.966Z,0.00
2019-01-11T03:50:24.956Z,0.00
2019-01-11T03:51:24.985Z,0.00
2019-01-11T03:52:24.937Z,0.00
2019-01-11T03:53:24.934Z,0.00
2019-01-11T03:54:24.915Z,0.00
2019-01-11T03:55:24.901Z,0.00
2019-01-11T03:56:24.891Z,0.00
2019-01-11T03:57:24.899Z,0.00
2019-01-11T03:58:24.867Z,0.00
2019-01-11T03:59:24.860Z,0.00
2019-01-11T04:00:24.847Z,0.00
2019-01-11T04:01:24.835Z,0.00
2019-01-11T04:02:24.846Z,0.00
2019-01-11T04:03:24.819Z,0.00
2019-01-11T04:04:24.818Z,0.00
2019-01-11T04:05:24.790Z,0.00
2019-01-11T04:06:24.781Z,0.00
2019-01-11T04:07:24.810Z,0.00
2019-01-11T04:08:24.758Z,0.00
2019-01-11T04:09:24.750Z,0.00
2019-01-11T04:10:24.737Z,0.00
2019-01-11T04:11:24.724Z,0.00
2019-01-11T04:12:24.712Z,0.00
2019-01-11T04:13:30.541Z,0.00
2019-01-11T04:14:25.691Z,0.00
2019-01-11T04:15:24.681Z,0.00
2019-01-11T04:16:24.673Z,0.00
2019-01-11T04:17:24.658Z,0.00
2019-01-11T04:18:24.668Z,0.00
2019-01-11T04:19:24.635Z,0.00
2019-01-11T04:20:24.625Z,0.00
2019-01-11T04:21:24.615Z,0.00
2019-01-11T04:22:24.604Z,0.00
2019-01-11T04:23:24.621Z,0.00
2019-01-11T04:24:24.580Z,0.00
2019-01-11T04:25:24.571Z,0.00
2019-01-11T04:26:24.562Z,0.00
2019-01-11T04:27:24.548Z,0.00
2019-01-11T04:28:24.558Z,0.00
2019-01-11T04:29:24.524Z,0.00
2019-01-11T04:30:24.512Z,0.00
2019-01-11T04:31:24.506Z,0.00
2019-01-11T04:32:24.491Z,0.00
2019-01-11T04:33:24.504Z,0.00
2019-01-11T04:34:24.476Z,0.00
2019-01-11T04:35:24.458Z,0.00
2019-01-11T04:36:24.449Z,0.00
2019-01-11T04:37:24.436Z,0.00
2019-01-11T04:38:24.463Z,0.00
2019-01-11T04:39:24.415Z,0.00
2019-01-11T04:40:24.403Z,0.00
2019-01-11T04:41:24.396Z,0.00
2019-01-11T04:42:24.381Z,0.00
2019-01-11T04:43:24.371Z,0.00
2019-01-11T04:44:24.381Z,0.00
2019-01-11T04:45:24.352Z,0.00
2019-01-11T04:46:24.337Z,0.00
2019-01-11T04:47:24.328Z,0.00
2019-01-11T04:48:24.315Z,0.00
2019-01-11T04:49:24.327Z,0.00
2019-01-11T04:50:24.297Z,0.00
2019-01-11T04:51:24.282Z,0.00
2019-01-11T04:52:24.271Z,0.00
2019-01-11T04:53:24.263Z,0.00
2019-01-11T04:54:24.271Z,0.00
2019-01-11T04:55:24.239Z,0.00
2019-01-11T04:56:24.231Z,0.00
2019-01-11T04:57:24.217Z,0.00
2019-01-11T04:58:24.214Z,0.00
2019-01-11T04:59:24.226Z,0.00
2019-01-11T05:00:24.183Z,0.00
2019-01-11T05:01:24.178Z,0.00
2019-01-11T05:02:24.162Z,0.00
2019-01-11T05:03:24.155Z,0.00
2019-01-11T05:04:24.161Z,0.00
2019-01-11T05:05:24.129Z,0.00
2019-01-11T05:06:24.119Z,0.00
2019-01-11T05:07:24.108Z,0.00
2019-01-11T05:08:24.100Z,0.00
2019-01-11T05:09:24.130Z,0.00
2019-01-11T05:10:24.076Z,0.00
2019-01-11T05:11:24.066Z,0.00
2019-01-11T05:12:24.051Z,0.00
2019-01-11T05:13:24.041Z,0.00
2019-01-11T05:14:24.031Z,0.00
2019-01-11T05:15:24.056Z,0.00
2019-01-11T05:16:24.008Z,0.00
2019-01-11T05:17:24.006Z,0.00
2019-01-11T05:18:23.994Z,0.00
2019-01-11T05:19:23.976Z,0.00
2019-01-11T05:20:23.986Z,0.00
2019-01-11T05:21:23.952Z,0.00
2019-01-11T05:22:23.941Z,0.00
2019-01-11T05:23:23.936Z,0.00
2019-01-11T05:24:23.921Z,0.00
2019-01-11T05:25:23.933Z,0.00
2019-01-11T05:26:23.899Z,0.00
2019-01-11T05:27:23.941Z,0.00
2019-01-11T05:28:23.875Z,0.00
2019-01-11T05:29:23.868Z,0.00
2019-01-11T05:30:23.876Z,0.00
2019-01-11T05:31:23.842Z,0.00
2019-01-11T05:32:23.832Z,0.00
2019-01-11T05:33:23.823Z,0.00
2019-01-11T05:34:23.811Z,0.00
2019-01-11T05:35:23.831Z,0.00
2019-01-11T05:36:23.786Z,0.00
2019-01-11T05:37:23.778Z,0.00
2019-01-11T05:38:23.765Z,0.00
2019-01-11T05:39:23.756Z,0.00
2019-01-11T05:40:23.766Z,0.00
2019-01-11T05:41:23.731Z,0.00
2019-01-11T05:42:23.723Z,0.00
2019-01-11T05:43:33.102Z,0.00
2019-01-11T05:44:23.701Z,0.00
2019-01-11T05:45:23.709Z,0.00
2019-01-11T05:46:23.677Z,0.00
2019-01-11T05:47:23.668Z,0.00
2019-01-11T05:48:23.654Z,0.00
2019-01-11T05:49:23.648Z,0.00
2019-01-11T05:50:24.508Z,0.00
2019-01-11T05:51:23.624Z,0.00
2019-01-11T05:52:23.610Z,0.00
2019-01-11T05:53:23.600Z,0.00
2019-01-11T05:54:23.591Z,0.00
2019-01-11T05:55:23.611Z,0.00
2019-01-11T05:56:23.566Z,0.00
2019-01-11T05:57:23.561Z,0.00
2019-01-11T05:58:23.546Z,0.00
2019-01-11T05:59:23.552Z,0.00
2019-01-11T06:00:23.526Z,0.00
2019-01-11T06:01:23.533Z,0.00
2019-01-11T06:02:23.504Z,0.00
2019-01-11T06:03:23.489Z,0.00
2019-01-11T06:04:23.520Z,0.00
2019-01-11T06:05:23.467Z,0.00
2019-01-11T06:06:23.480Z,0.00
2019-01-11T06:07:23.491Z,0.00
2019-01-11T06:08:23.439Z,0.00
2019-01-11T06:09:23.422Z,0.00
2019-01-11T06:10:23.411Z,0.00
2019-01-11T06:11:23.425Z,0.00
2019-01-11T06:12:23.389Z,0.00
2019-01-11T06:13:23.381Z,0.00
2019-01-11T06:14:23.367Z,0.00
2019-01-11T06:15:23.356Z,0.00
2019-01-11T06:16:23.378Z,0.00
2019-01-11T06:17:23.335Z,0.00
2019-01-11T06:18:23.361Z,0.00
2019-01-11T06:19:23.311Z,0.00
2019-01-11T06:20:23.301Z,0.00
2019-01-11T06:21:23.289Z,0.00
2019-01-11T06:22:23.308Z,0.00
2019-01-11T06:23:23.271Z,0.00
2019-01-11T06:24:23.268Z,0.00
2019-01-11T06:25:23.246Z,0.00
2019-01-11T06:26:23.237Z,0.00
2019-01-11T06:27:23.247Z,0.00
2019-01-11T06:28:23.214Z,0.00
2019-01-11T06:29:23.202Z,0.00
2019-01-11T06:30:23.190Z,0.00
2019-01-11T06:31:23.181Z,0.00
2019-01-11T06:32:23.188Z,0.00
2019-01-11T06:33:23.158Z,0.00
2019-01-11T06:34:23.430Z,0.00
2019-01-11T06:35:23.233Z,0.00
2019-01-11T06:36:23.161Z,0.00
2019-01-11T06:37:23.696Z,0.00
2019-01-11T06:38:23.195Z,0.00
2019-01-11T06:39:23.097Z,0.00
2019-01-11T06:41:49.094Z,0.00
2019-01-11T06:42:49.045Z,0.00
2019-01-11T06:43:49.030Z,0.00
2019-01-11T06:44:49.025Z,0.00
2019-01-11T06:45:49.008Z,0.00
2019-01-11T06:46:49.001Z,0.00
2019-01-11T06:47:49.007Z,0.00
2019-01-11T06:48:48.977Z,0.00
2019-01-11T06:49:48.967Z,0.00
2019-01-11T06:50:48.958Z,0.00
2019-01-11T06:51:48.945Z,0.00
2019-01-11T06:52:48.954Z,0.00
2019-01-11T06:53:48.941Z,0.00
2019-01-11T06:54:48.913Z,0.00
2019-01-11T06:55:48.941Z,0.00
2019-01-11T06:56:48.890Z,0.00
2019-01-11T06:57:48.898Z,0.00
2019-01-11T06:58:48.868Z,0.00
2019-01-11T06:59:48.856Z,0.00
2019-01-11T07:00:48.850Z,0.00
2019-01-11T07:01:48.838Z,0.00
2019-01-11T07:02:48.843Z,0.00
2019-01-11T07:03:48.812Z,0.00
2019-01-11T07:04:48.802Z,0.00
2019-01-11T07:05:48.790Z,0.00
2019-01-11T07:06:48.784Z,0.00
2019-01-11T07:07:48.815Z,0.00
2019-01-11T07:08:48.763Z,0.00
2019-01-11T07:09:48.763Z,0.00
2019-01-11T07:10:48.735Z,0.00
2019-01-11T07:11:48.724Z,0.00
2019-01-11T07:12:48.713Z,4.00
2019-01-11T07:13:48.724Z,4.00
2019-01-11T07:14:48.696Z,4.00
2019-01-11T07:15:48.682Z,0.00
2019-01-11T07:16:48.671Z,4.00
2019-01-11T07:17:48.664Z,4.00
2019-01-11T07:18:48.666Z,4.00
2019-01-11T07:19:48.646Z,4.00
2019-01-11T07:20:48.630Z,4.00
2019-01-11T07:21:48.615Z,4.00
2019-01-11T07:22:48.604Z,4.00
2019-01-11T07:23:48.613Z,4.00
2019-01-11T07:24:48.587Z,8.00
2019-01-11T07:25:48.570Z,8.00
2019-01-11T07:26:48.563Z,8.00
2019-01-11T07:27:48.551Z,4.00
2019-01-11T07:28:48.562Z,8.00
2019-01-11T07:29:48.527Z,12.00
2019-01-11T07:30:48.518Z,12.00
2019-01-11T07:31:48.505Z,8.00
2019-01-11T07:32:48.494Z,8.00
2019-01-11T07:33:48.505Z,12.00
2019-01-11T07:34:48.471Z,12.00
2019-01-11T07:35:48.462Z,12.00
2019-01-11T07:36:48.449Z,12.00
2019-01-11T07:37:48.440Z,16.00
2019-01-11T07:38:48.463Z,16.00
2019-01-11T07:39:48.416Z,16.00
2019-01-11T07:40:48.406Z,16.00
2019-01-11T07:41:48.399Z,20.00
2019-01-11T07:42:48.385Z,24.00
2019-01-11T07:43:48.374Z,24.00
2019-01-11T07:44:48.399Z,28.00
2019-01-11T07:45:48.355Z,28.00
2019-01-11T07:46:48.339Z,32.00
2019-01-11T07:47:48.336Z,32.00
2019-01-11T07:48:48.318Z,36.00
2019-01-11T07:49:48.330Z,36.00
2019-01-11T07:50:49.427Z,40.00
2019-01-11T07:51:48.285Z,44.00
2019-01-11T07:52:48.272Z,44.00
2019-01-11T07:53:48.282Z,48.00
2019-01-11T07:54:48.271Z,48.00
2019-01-11T07:55:48.246Z,48.00
2019-01-11T07:56:48.229Z,48.00
2019-01-11T07:57:48.217Z,52.00
2019-01-11T07:58:48.207Z,56.00
2019-01-11T07:59:48.227Z,56.00
2019-01-11T08:00:48.184Z,56.00
2019-01-11T08:01:48.174Z,60.00
2019-01-11T08:02:56.407Z,64.00
2019-01-11T08:03:48.152Z,64.00
2019-01-11T08:04:48.140Z,68.00
2019-01-11T08:05:48.149Z,68.00
2019-01-11T08:06:48.118Z,72.00
2019-01-11T08:07:48.116Z,72.00
2019-01-11T08:08:48.095Z,80.00
2019-01-11T08:09:48.086Z,88.00
2019-01-11T08:10:48.095Z,88.00
2019-01-11T08:11:48.063Z,92.00
2019-01-11T08:12:48.051Z,92.00
2019-01-11T08:13:48.044Z,88.00
2019-01-11T08:14:48.030Z,88.00
2019-01-11T08:15:48.038Z,92.00
2019-01-11T08:16:48.008Z,92.00
2019-01-11T08:17:47.997Z,88.00
2019-01-11T08:18:47.993Z,88.00
2019-01-11T08:19:47.980Z,88.00
2019-01-11T08:20:47.998Z,84.00
2019-01-11T08:21:47.958Z,88.00
2019-01-11T08:22:47.944Z,88.00
2019-01-11T08:23:47.934Z,92.00
2019-01-11T08:24:47.920Z,96.00
2019-01-11T08:25:47.930Z,104.00
2019-01-11T08:26:47.900Z,104.00
2019-01-11T08:27:47.890Z,108.00
2019-01-11T08:28:47.877Z,108.00
2019-01-11T08:29:47.897Z,104.00
2019-01-11T08:30:47.855Z,104.00
2019-01-11T08:31:47.873Z,100.00
2019-01-11T08:32:47.832Z,92.00
2019-01-11T08:33:47.824Z,92.00
2019-01-11T08:34:47.809Z,96.00
2019-01-11T08:35:47.801Z,100.00
2019-01-11T08:36:47.807Z,104.00
2019-01-11T08:37:47.778Z,112.00
2019-01-11T08:38:47.772Z,116.00
2019-01-11T08:39:47.762Z,124.00
2019-01-11T08:40:47.743Z,128.00
2019-01-11T08:41:47.795Z,136.00
2019-01-11T08:42:47.727Z,140.00
2019-01-11T08:43:47.711Z,144.00
2019-01-11T08:44:47.709Z,152.00
2019-01-11T08:45:47.688Z,160.00
2019-01-11T08:46:47.739Z,164.00
2019-01-11T08:47:47.743Z,164.00
2019-01-11T08:48:47.654Z,164.00
2019-01-11T08:49:47.645Z,164.00
2019-01-11T08:50:47.634Z,164.00
2019-01-11T08:51:47.622Z,172.00
2019-01-11T08:52:47.637Z,176.00
2019-01-11T08:53:47.601Z,180.00
2019-01-11T08:54:47.590Z,176.00
2019-01-11T08:55:47.578Z,180.00
2019-01-11T08:56:47.570Z,188.00
2019-01-11T08:57:47.578Z,180.00
2019-01-11T08:58:47.544Z,180.00
2019-01-11T08:59:47.556Z,180.00
2019-01-11T09:00:47.522Z,188.00
2019-01-11T09:01:47.511Z,192.00
2019-01-11T09:02:47.657Z,200.00
2019-01-11T09:03:47.495Z,200.00
2019-01-11T09:04:47.478Z,204.00
2019-01-11T09:05:55.754Z,208.00
2019-01-11T09:06:47.458Z,204.00
2019-01-11T09:07:47.466Z,208.00
2019-01-11T09:08:47.434Z,208.00
2019-01-11T09:09:47.424Z,208.00
2019-01-11T09:10:47.416Z,208.00
2019-01-11T09:11:47.402Z,204.00
2019-01-11T09:12:47.417Z,200.00
2019-01-11T09:13:47.379Z,192.00
2019-01-11T09:14:47.368Z,192.00
2019-01-11T09:15:47.359Z,188.00
2019-01-11T09:16:47.350Z,180.00
2019-01-11T09:17:47.369Z,164.00
2019-01-11T09:18:47.324Z,156.00
2019-01-11T09:19:47.312Z,152.00
2019-01-11T09:20:47.300Z,156.00
2019-01-11T09:21:47.294Z,160.00
2019-01-11T09:22:47.284Z,164.00
2019-01-11T09:23:47.293Z,172.00
2019-01-11T09:24:47.262Z,176.00
2019-01-11T09:25:47.250Z,184.00
2019-01-11T09:26:47.237Z,196.00
2019-01-11T09:27:47.224Z,204.00
2019-01-11T09:28:47.234Z,212.00
2019-01-11T09:29:47.204Z,224.00
2019-01-11T09:30:47.191Z,236.00
2019-01-11T09:31:47.180Z,248.00
2019-01-11T09:32:47.169Z,268.00
2019-01-11T09:33:47.179Z,304.00
2019-01-11T09:34:47.147Z,344.00
2019-01-11T09:35:47.136Z,384.00
2019-01-11T09:36:47.125Z,436.00
2019-01-11T09:37:47.113Z,476.00
2019-01-11T09:38:47.124Z,456.00
2019-01-11T09:39:47.095Z,400.00
2019-01-11T09:40:47.083Z,344.00
2019-01-11T09:41:47.075Z,304.00
2019-01-11T09:42:47.058Z,300.00
2019-01-11T09:43:47.070Z,300.00
2019-01-11T09:44:47.036Z,272.00
2019-01-11T09:45:47.027Z,256.00
2019-01-11T09:46:47.015Z,248.00
2019-01-11T09:47:47.006Z,256.00
2019-01-11T09:48:47.027Z,260.00
2019-01-11T09:49:46.994Z,260.00
2019-01-11T09:50:46.972Z,260.00
2019-01-11T09:51:46.962Z,264.00
2019-01-11T09:52:46.951Z,268.00
2019-01-11T09:53:46.938Z,272.00
2019-01-11T09:54:46.945Z,284.00
2019-01-11T09:55:46.915Z,312.00
2019-01-11T09:56:46.904Z,352.00
2019-01-11T09:57:46.893Z,384.00
2019-01-11T09:58:46.883Z,392.00
2019-01-11T09:59:46.892Z,388.00
2019-01-11T10:00:46.860Z,388.00
2019-01-11T10:01:46.852Z,396.00
2019-01-11T10:02:46.838Z,396.00
2019-01-11T10:03:46.892Z,424.00
2019-01-11T10:04:46.841Z,448.00
2019-01-11T10:05:46.805Z,456.00
2019-01-11T10:06:46.794Z,460.00
2019-01-11T10:07:46.782Z,460.00
2019-01-11T10:08:46.771Z,464.00
2019-01-11T10:09:46.782Z,456.00
2019-01-11T10:10:46.748Z,468.00
2019-01-11T10:11:46.738Z,480.00
2019-01-11T10:12:46.728Z,504.00
2019-01-11T10:13:46.714Z,536.00
2019-01-11T10:14:46.733Z,560.00
2019-01-11T10:15:46.694Z,588.00
2019-01-11T10:16:46.682Z,592.00
2019-01-11T10:17:46.670Z,556.00
2019-01-11T10:18:46.660Z,508.00
2019-01-11T10:19:46.649Z,464.00
2019-01-11T10:20:46.658Z,444.00
2019-01-11T10:21:46.627Z,432.00
2019-01-11T10:22:46.615Z,404.00
2019-01-11T10:23:46.605Z,376.00
2019-01-11T10:24:46.594Z,348.00
2019-01-11T10:25:46.602Z,352.00
2019-01-11T10:26:46.571Z,352.00
2019-01-11T10:27:46.562Z,340.00
2019-01-11T10:28:46.552Z,316.00
2019-01-11T10:29:46.538Z,296.00
2019-01-11T10:30:46.546Z,288.00
2019-01-11T10:31:46.515Z,284.00
2019-01-11T10:32:46.504Z,288.00
2019-01-11T10:33:46.493Z,288.00
2019-01-11T10:34:46.485Z,292.00
2019-01-11T10:35:46.492Z,292.00
2019-01-11T10:36:46.461Z,292.00
2019-01-11T10:37:46.451Z,300.00
2019-01-11T10:38:46.440Z,320.00
2019-01-11T10:39:46.426Z,308.00
2019-01-11T10:40:46.435Z,304.00
2019-01-11T10:41:46.404Z,288.00
2019-01-11T10:42:46.397Z,264.00
2019-01-11T10:43:46.386Z,240.00
2019-01-11T10:44:46.372Z,236.00
2019-01-11T10:45:46.383Z,256.00
2019-01-11T10:46:49.209Z,288.00
2019-01-11T10:47:46.339Z,312.00
2019-01-11T10:48:46.328Z,340.00
2019-01-11T10:49:46.317Z,364.00
2019-01-11T10:50:46.326Z,368.00
2019-01-11T10:51:46.299Z,364.00
2019-01-11T10:52:46.285Z,352.00
2019-01-11T10:53:46.273Z,356.00
2019-01-11T10:54:46.269Z,380.00
2019-01-11T10:55:46.284Z,416.00
2019-01-11T10:56:46.240Z,432.00
2019-01-11T10:57:46.236Z,452.00
2019-01-11T10:58:46.221Z,472.00
2019-01-11T10:59:46.207Z,492.00
2019-01-11T11:00:46.196Z,472.00
2019-01-11T11:01:46.215Z,456.00
2019-01-11T11:02:46.173Z,468.00
2019-01-11T11:03:46.175Z,488.00
2019-01-11T11:04:46.157Z,508.00
2019-01-11T11:05:46.140Z,556.00
2019-01-11T11:06:46.150Z,580.00
2019-01-11T11:07:46.119Z,608.00
2019-01-11T11:08:46.106Z,616.00
2019-01-11T11:09:46.101Z,632.00
2019-01-11T11:10:46.084Z,676.00
2019-01-11T11:11:46.093Z,728.00
2019-01-11T11:12:46.063Z,744.00
2019-01-11T11:13:46.060Z,708.00
2019-01-11T11:14:46.043Z,672.00
2019-01-11T11:15:46.034Z,644.00
2019-01-11T11:16:46.039Z,668.00
2019-01-11T11:17:46.006Z,688.00
2019-01-11T11:18:45.995Z,680.00
2019-01-11T11:19:45.984Z,660.00
2019-01-11T11:20:45.974Z,620.00
2019-01-11T11:21:45.963Z,592.00
2019-01-11T11:22:45.970Z,560.00
2019-01-11T11:23:45.945Z,536.00
2019-01-11T11:24:45.930Z,528.00
2019-01-11T11:25:45.920Z,516.00
2019-01-11T11:26:45.908Z,484.00
2019-01-11T11:27:45.916Z,456.00
2019-01-11T11:28:45.884Z,428.00
2019-01-11T11:29:45.873Z,400.00
2019-01-11T11:30:45.862Z,372.00
2019-01-11T11:31:45.856Z,360.00
2019-01-11T11:32:45.859Z,364.00
2019-01-11T11:33:45.828Z,372.00
2019-01-11T11:34:45.825Z,372.00
2019-01-11T11:35:45.806Z,384.00
2019-01-11T11:36:45.801Z,424.00
2019-01-11T11:37:45.835Z,464.00
2019-01-11T11:38:45.780Z,500.00
2019-01-11T11:39:45.789Z,636.00
2019-01-11T11:40:45.766Z,760.00
2019-01-11T11:41:45.772Z,760.00
2019-01-11T11:42:45.773Z,708.00
2019-01-11T11:43:45.722Z,656.00
2019-01-11T11:44:45.708Z,620.00
2019-01-11T11:45:45.715Z,588.00
2019-01-11T11:46:45.688Z,516.00
2019-01-11T11:47:45.674Z,452.00
2019-01-11T11:48:45.684Z,408.00
2019-01-11T11:49:45.653Z,408.00
2019-01-11T11:50:45.643Z,468.00
2019-01-11T11:51:45.630Z,512.00
2019-01-11T11:52:45.619Z,524.00
2019-01-11T11:53:45.630Z,476.00
2019-01-11T11:54:45.599Z,500.00
2019-01-11T11:55:45.587Z,560.00
2019-01-11T11:56:45.581Z,660.00
2019-01-11T11:57:45.564Z,716.00
2019-01-11T11:58:45.576Z,736.00
2019-01-11T11:59:45.542Z,672.00
2019-01-11T12:00:45.535Z,600.00
2019-01-11T12:01:46.691Z,660.00
2019-01-11T12:02:45.508Z,932.00
2019-01-11T12:03:45.524Z,992.00
2019-01-11T12:04:45.486Z,904.00
2019-01-11T12:05:45.480Z,844.00
2019-01-11T12:06:45.470Z,776.00
2019-01-11T12:07:45.457Z,664.00
2019-01-11T12:08:45.463Z,624.00
2019-01-11T12:09:45.433Z,592.00
2019-01-11T12:10:45.422Z,544.00
2019-01-11T12:11:45.415Z,552.00
2019-01-11T12:12:45.401Z,544.00
2019-01-11T12:13:45.411Z,556.00
2019-01-11T12:14:45.376Z,560.00
2019-01-11T12:15:45.368Z,552.00
2019-01-11T12:16:45.357Z,564.00
2019-01-11T12:17:45.341Z,556.00
2019-01-11T12:18:45.360Z,536.00
2019-01-11T12:19:45.320Z,556.00
2019-01-11T12:20:45.313Z,548.00
2019-01-11T12:21:47.797Z,524.00
2019-01-11T12:22:45.288Z,484.00
2019-01-11T12:23:45.276Z,488.00
2019-01-11T12:24:45.286Z,492.00
2019-01-11T12:25:45.257Z,476.00
2019-01-11T12:26:45.247Z,468.00
2019-01-11T12:27:45.232Z,432.00
2019-01-11T12:28:45.226Z,424.00
2019-01-11T12:29:45.235Z,392.00
2019-01-11T12:30:45.200Z,356.00
2019-01-11T12:31:45.537Z,348.00
2019-01-11T12:32:45.846Z,312.00
2019-01-11T12:33:53.445Z,260.00
2019-01-11T12:34:45.175Z,248.00
2019-01-11T12:35:45.151Z,300.00
2019-01-11T12:36:45.133Z,300.00
2019-01-11T12:37:45.123Z,276.00
2019-01-11T12:38:45.111Z,240.00
2019-01-11T12:39:45.119Z,228.00
2019-01-11T12:40:45.132Z,228.00
2019-01-11T12:41:45.078Z,228.00
2019-01-11T12:42:45.071Z,212.00
2019-01-11T12:43:55.558Z,224.00
2019-01-11T12:44:45.067Z,240.00
2019-01-11T12:45:45.047Z,264.00
2019-01-11T12:46:45.024Z,268.00
2019-01-11T12:47:45.013Z,288.00
2019-01-11T12:48:45.002Z,276.00
2019-01-11T12:49:45.045Z,272.00
2019-01-11T12:50:44.999Z,252.00
2019-01-11T12:51:44.980Z,240.00
2019-01-11T12:52:44.967Z,268.00
2019-01-11T12:53:44.948Z,296.00
2019-01-11T12:54:44.938Z,300.00
2019-01-11T12:55:44.947Z,352.00
2019-01-11T12:56:44.920Z,416.00
2019-01-11T12:57:44.907Z,416.00
2019-01-11T12:58:44.894Z,404.00
2019-01-11T12:59:44.882Z,444.00